createdAt,value
2019-02-18T00:00:53.979Z,65.37
2019-02-18T00:01:52.166Z,65.34
2019-02-18T00:03:06.809Z,65.06
2019-02-18T00:03:53.799Z,65.72
2019-02-18T00:04:52.866Z,65.06
2019-02-18T00:05:52.077Z,65.15
2019-02-18T00:06:54.018Z,64.68
2019-02-18T00:07:54.888Z,64.49
2019-02-18T00:08:52.770Z,64.20
2019-02-18T00:09:52.028Z,64.01
2019-02-18T00:10:51.971Z,64.20
2019-02-18T00:11:51.889Z,64.11
2019-02-18T00:12:51.836Z,64.39
2019-02-18T00:13:51.940Z,64.96
2019-02-18T00:14:52.009Z,65.06
2019-02-18T00:15:51.884Z,65.34
2019-02-18T00:16:51.932Z,66.28
2019-02-18T00:18:52.390Z,66.28
2019-02-18T00:19:51.860Z,65.81
2019-02-18T00:20:53.214Z,65.91
2019-02-18T00:21:54.251Z,65.81
2019-02-18T00:22:51.644Z,65.50
2019-02-18T00:23:52.252Z,66.16
2019-02-18T00:24:52.323Z,66.38
2019-02-18T00:25:51.622Z,66.16
2019-02-18T00:26:52.317Z,66.25
2019-02-18T00:27:51.673Z,66.67
2019-02-18T00:28:52.279Z,67.05
2019-02-18T00:29:51.769Z,66.38
2019-02-18T00:30:51.615Z,66.57
2019-02-18T00:31:51.610Z,66.09
2019-02-18T00:32:51.476Z,66.28
2019-02-18T00:33:51.568Z,64.77
2019-02-18T00:34:51.431Z,65.15
2019-02-18T00:35:51.452Z,65.02
2019-02-18T00:36:51.411Z,65.21
2019-02-18T00:37:51.375Z,64.83
2019-02-18T00:38:51.399Z,65.21
2019-02-18T00:39:51.432Z,65.31
2019-02-18T00:40:51.386Z,65.31
2019-02-18T00:41:51.434Z,64.64
2019-02-18T00:42:51.164Z,64.64
2019-02-18T00:43:51.289Z,64.64
2019-02-18T00:44:51.373Z,65.12
2019-02-18T00:45:51.548Z,65.31
2019-02-18T00:46:51.093Z,65.21
2019-02-18T00:47:51.746Z,64.74
2019-02-18T00:48:51.045Z,65.59
2019-02-18T00:49:51.109Z,65.97
2019-02-18T00:50:51.073Z,65.97
2019-02-18T00:51:52.817Z,65.78
2019-02-18T00:52:51.006Z,65.97
2019-02-18T00:53:51.811Z,66.25
2019-02-18T00:54:51.118Z,66.06
2019-02-18T00:55:50.930Z,66.25
2019-02-18T00:56:51.030Z,66.60
2019-02-18T00:57:50.982Z,66.69
2019-02-18T00:58:50.865Z,66.88
2019-02-18T00:59:50.951Z,66.98
2019-02-18T01:00:50.828Z,66.41
2019-02-18T01:01:50.915Z,66.13
2019-02-18T01:02:53.867Z,66.22
2019-02-18T01:03:50.854Z,66.22
2019-02-18T01:04:50.804Z,66.41
2019-02-18T01:05:50.755Z,66.69
2019-02-18T01:06:50.815Z,66.88
2019-02-18T01:07:50.742Z,66.98
2019-02-18T01:08:50.820Z,66.79
2019-02-18T01:09:50.791Z,66.79
2019-02-18T01:10:50.693Z,66.88
2019-02-18T01:11:51.285Z,67.07
2019-02-18T01:12:52.279Z,66.50
2019-02-18T01:13:50.547Z,66.22
2019-02-18T01:14:50.576Z,66.22
2019-02-18T01:15:50.502Z,66.13
2019-02-18T01:16:51.137Z,66.13
2019-02-18T01:17:50.575Z,66.03
2019-02-18T01:18:50.627Z,65.37
2019-02-18T01:19:50.512Z,65.37
2019-02-18T01:20:50.358Z,65.56
2019-02-18T01:21:50.490Z,65.66
2019-02-18T01:22:50.396Z,65.66
2019-02-18T01:23:51.238Z,65.75
2019-02-18T01:24:50.433Z,64.80
2019-02-18T01:25:51.179Z,65.18
2019-02-18T01:26:50.214Z,65.09
2019-02-18T01:27:50.350Z,65.28
2019-02-18T01:28:51.158Z,65.37
2019-02-18T01:29:50.235Z,65.02
2019-02-18T01:30:50.178Z,65.18
2019-02-18T01:31:50.304Z,65.12
2019-02-18T01:32:50.265Z,64.71
2019-02-18T01:33:50.198Z,64.52
2019-02-18T01:34:50.063Z,64.64
2019-02-18T01:35:50.181Z,64.36
2019-02-18T01:36:50.038Z,64.45
2019-02-18T01:37:50.139Z,64.64
2019-02-18T01:38:50.267Z,64.64
2019-02-18T01:39:50.061Z,64.26
2019-02-18T01:40:50.715Z,64.26
2019-02-18T01:41:50.017Z,63.89
2019-02-18T01:42:50.091Z,63.89
2019-02-18T01:43:50.116Z,64.07
2019-02-18T01:44:50.020Z,63.89
2019-02-18T01:45:49.893Z,63.89
2019-02-18T01:47:49.966Z,63.42
2019-02-18T01:48:49.983Z,63.51
2019-02-18T01:49:49.763Z,63.51
2019-02-18T01:50:50.739Z,63.51
2019-02-18T01:51:50.804Z,63.51
2019-02-18T01:52:49.761Z,63.60
2019-02-18T01:53:49.818Z,63.42
2019-02-18T01:54:49.702Z,63.70
2019-02-18T01:55:49.832Z,63.51
2019-02-18T01:56:49.800Z,63.51
2019-02-18T01:57:49.634Z,63.51
2019-02-18T01:58:49.610Z,63.60
2019-02-18T01:59:49.592Z,63.67
2019-02-18T02:00:49.560Z,63.51
2019-02-18T02:01:49.620Z,63.39
2019-02-18T02:02:49.594Z,63.57
2019-02-18T02:03:49.714Z,63.48
2019-02-18T02:04:51.224Z,63.95
2019-02-18T02:05:49.461Z,63.95
2019-02-18T02:06:49.529Z,63.85
2019-02-18T02:07:56.279Z,63.76
2019-02-18T02:08:49.478Z,63.76
2019-02-18T02:09:50.213Z,64.33
2019-02-18T02:10:49.399Z,64.04
2019-02-18T02:11:49.422Z,64.14
2019-02-18T02:13:51.190Z,64.23
2019-02-18T02:14:51.235Z,64.14
2019-02-18T02:15:49.368Z,64.23
2019-02-18T02:16:51.341Z,64.23
2019-02-18T02:17:49.339Z,64.23
2019-02-18T02:18:49.187Z,64.23
2019-02-18T02:19:49.230Z,64.42
2019-02-18T02:20:49.350Z,64.14
2019-02-18T02:21:49.253Z,64.52
2019-02-18T02:22:49.101Z,64.42
2019-02-18T02:23:49.464Z,64.52
2019-02-18T02:24:49.845Z,64.71
2019-02-18T02:25:49.213Z,64.61
2019-02-18T02:26:49.092Z,64.71
2019-02-18T02:27:49.046Z,64.33
2019-02-18T02:28:49.674Z,64.61
2019-02-18T02:29:49.777Z,64.61
2019-02-18T02:30:49.001Z,64.71
2019-02-18T02:31:49.087Z,64.71
2019-02-18T02:32:49.185Z,64.71
2019-02-18T02:33:49.714Z,64.42
2019-02-18T02:34:48.882Z,64.23
2019-02-18T02:35:48.977Z,64.61
2019-02-18T02:36:48.904Z,64.52
2019-02-18T02:37:48.749Z,64.42
2019-02-18T02:38:48.959Z,64.71
2019-02-18T02:39:49.746Z,64.71
2019-02-18T02:40:48.834Z,64.80
2019-02-18T02:41:49.735Z,64.52
2019-02-18T02:42:48.813Z,64.80
2019-02-18T02:43:48.812Z,64.71
2019-02-18T02:44:48.662Z,64.71
2019-02-18T02:45:48.612Z,64.52
2019-02-18T02:46:48.744Z,64.61
2019-02-18T02:47:48.672Z,65.28
2019-02-18T02:48:48.671Z,64.80
2019-02-18T02:49:49.278Z,64.74
2019-02-18T02:50:48.485Z,64.71
2019-02-18T02:51:48.506Z,64.90
2019-02-18T02:52:48.552Z,64.71
2019-02-18T02:53:48.486Z,64.71
2019-02-18T02:54:48.523Z,64.55
2019-02-18T02:55:48.444Z,64.61
2019-02-18T02:56:48.521Z,65.31
2019-02-18T02:57:49.307Z,65.12
2019-02-18T02:58:48.472Z,65.02
2019-02-18T02:59:48.502Z,65.21
2019-02-18T03:00:48.443Z,65.02
2019-02-18T03:01:48.470Z,65.21
2019-02-18T03:02:49.279Z,65.02
2019-02-18T03:03:48.311Z,65.02
2019-02-18T03:04:48.337Z,65.12
2019-02-18T03:05:48.380Z,65.12
2019-02-18T03:06:48.280Z,65.02
2019-02-18T03:07:49.247Z,65.21
2019-02-18T03:08:48.245Z,64.83
2019-02-18T03:09:49.781Z,65.02
2019-02-18T03:10:48.219Z,65.40
2019-02-18T03:11:48.176Z,65.31
2019-02-18T03:12:48.065Z,65.78
2019-02-18T03:13:48.079Z,65.59
2019-02-18T03:14:48.676Z,65.59
2019-02-18T03:15:48.831Z,65.59
2019-02-18T03:16:48.060Z,65.31
2019-02-18T03:17:48.015Z,65.59
2019-02-18T03:18:48.047Z,66.16
2019-02-18T03:19:47.975Z,66.31
2019-02-18T03:20:47.905Z,66.25
2019-02-18T03:21:47.946Z,66.53
2019-02-18T03:22:48.718Z,66.44
2019-02-18T03:23:48.728Z,66.16
2019-02-18T03:24:48.113Z,66.16
2019-02-18T03:25:47.900Z,66.25
2019-02-18T03:26:47.864Z,66.16
2019-02-18T03:27:47.838Z,66.25
2019-02-18T03:28:48.778Z,66.25
2019-02-18T03:29:48.799Z,66.25
2019-02-18T03:30:47.733Z,66.35
2019-02-18T03:31:47.757Z,66.35
2019-02-18T03:32:47.815Z,66.06
2019-02-18T03:33:47.815Z,66.06
2019-02-18T03:34:47.684Z,66.44
2019-02-18T03:35:47.634Z,66.53
2019-02-18T03:36:49.305Z,66.44
2019-02-18T03:37:47.777Z,66.63
2019-02-18T03:38:48.337Z,67.11
2019-02-18T03:39:47.589Z,67.11
2019-02-18T03:40:47.660Z,66.73
2019-02-18T03:41:47.643Z,67.30
2019-02-18T03:42:48.184Z,67.30
2019-02-18T03:43:47.574Z,67.30
2019-02-18T03:44:47.699Z,66.82
2019-02-18T03:45:47.567Z,66.82
2019-02-18T03:46:47.468Z,66.92
2019-02-18T03:47:47.427Z,67.30
2019-02-18T03:48:47.532Z,67.20
2019-02-18T03:49:48.277Z,67.30
2019-02-18T03:50:47.408Z,67.20
2019-02-18T03:51:47.337Z,67.20
2019-02-18T03:52:47.297Z,67.30
2019-02-18T03:53:47.407Z,67.77
2019-02-18T03:54:47.354Z,67.49
2019-02-18T03:55:48.236Z,67.68
2019-02-18T03:56:47.359Z,67.86
2019-02-18T03:57:47.157Z,68.15
2019-02-18T03:58:47.294Z,67.96
2019-02-18T03:59:47.083Z,68.15
2019-02-18T04:00:47.271Z,68.05
2019-02-18T04:02:47.115Z,68.62
2019-02-18T04:03:47.143Z,68.33
2019-02-18T04:04:47.167Z,68.52
2019-02-18T04:05:47.054Z,68.90
2019-02-18T04:06:47.169Z,68.90
2019-02-18T04:07:47.086Z,69.00
2019-02-18T04:08:47.185Z,68.90
2019-02-18T04:09:47.035Z,68.90
2019-02-18T04:10:49.810Z,68.90
2019-02-18T04:11:46.913Z,69.09
2019-02-18T04:12:46.967Z,69.19
2019-02-18T04:13:46.964Z,69.28
2019-02-18T04:14:47.762Z,69.47
2019-02-18T04:15:58.182Z,69.38
2019-02-18T04:17:39.702Z,70.23
2019-02-18T04:18:39.825Z,70.42
2019-02-18T04:20:33.655Z,70.42
2019-02-18T04:21:32.997Z,70.98
2019-02-18T04:22:33.055Z,70.89
2019-02-18T04:23:32.912Z,70.89
2019-02-18T04:24:33.031Z,71.36
2019-02-18T04:26:32.876Z,70.98
2019-02-18T04:27:33.046Z,70.98
2019-02-18T04:28:33.589Z,71.17
2019-02-18T04:29:32.946Z,71.08
2019-02-18T04:30:32.802Z,71.08
2019-02-18T04:31:32.904Z,71.08
2019-02-18T04:32:32.831Z,70.98
2019-02-18T04:33:32.824Z,71.08
2019-02-18T04:34:32.776Z,70.98
2019-02-18T04:35:32.752Z,71.27
2019-02-18T04:36:32.743Z,71.27
2019-02-18T04:37:32.702Z,71.74
2019-02-18T04:38:32.638Z,71.27
2019-02-18T04:39:33.599Z,71.36
2019-02-18T04:40:41.082Z,71.36
2019-02-18T04:42:27.146Z,71.84
2019-02-18T04:43:26.472Z,72.31
2019-02-18T04:45:19.901Z,72.12
2019-02-18T04:46:19.708Z,72.22
2019-02-18T04:47:19.700Z,71.84
2019-02-18T04:48:19.737Z,71.84
2019-02-18T04:49:19.732Z,71.93
2019-02-18T04:50:19.566Z,71.93
2019-02-18T04:51:19.704Z,72.03
2019-02-18T04:52:19.531Z,72.03
2019-02-18T04:53:20.651Z,71.93
2019-02-18T04:54:19.666Z,72.31
2019-02-18T04:55:19.566Z,72.12
2019-02-18T04:56:19.590Z,72.60
2019-02-18T04:57:19.566Z,72.60
2019-02-18T04:58:30.475Z,72.69
2019-02-18T04:59:21.327Z,72.41
2019-02-18T05:00:20.354Z,72.22
2019-02-18T05:01:19.424Z,72.41
2019-02-18T05:02:19.475Z,72.03
2019-02-18T05:03:19.433Z,72.22
2019-02-18T05:04:20.386Z,72.22
2019-02-18T05:05:19.468Z,72.22
2019-02-18T05:06:19.509Z,72.78
2019-02-18T05:07:19.625Z,72.41
2019-02-18T05:08:19.274Z,72.31
2019-02-18T05:09:19.212Z,72.69
2019-02-18T05:10:19.260Z,72.69
2019-02-18T05:11:19.858Z,72.60
2019-02-18T05:12:19.396Z,72.78
2019-02-18T05:13:19.847Z,72.60
2019-02-18T05:14:19.262Z,72.60
2019-02-18T05:15:19.814Z,72.50
2019-02-18T05:16:19.181Z,72.60
2019-02-18T05:17:19.273Z,72.60
2019-02-18T05:18:19.129Z,72.88
2019-02-18T05:19:19.286Z,72.78
2019-02-18T05:20:19.161Z,72.78
2019-02-18T05:21:20.889Z,72.97
2019-02-18T05:22:19.832Z,72.88
2019-02-18T05:23:19.081Z,73.73
2019-02-18T05:24:19.209Z,73.54
2019-02-18T05:25:19.069Z,73.64
2019-02-18T05:26:19.954Z,73.64
2019-02-18T05:27:18.932Z,73.64
2019-02-18T05:28:19.004Z,73.45
2019-02-18T05:29:19.913Z,73.45
2019-02-18T05:30:18.960Z,73.45
2019-02-18T05:31:18.919Z,73.35
2019-02-18T05:32:18.918Z,73.54
2019-02-18T05:33:19.365Z,73.83
2019-02-18T05:34:19.478Z,73.73
2019-02-18T05:35:18.755Z,73.73
2019-02-18T05:36:18.834Z,73.73
2019-02-18T05:37:19.469Z,74.21
2019-02-18T05:38:18.699Z,73.83
2019-02-18T05:39:19.247Z,74.68
2019-02-18T05:40:19.678Z,74.11
2019-02-18T05:41:18.652Z,74.40
2019-02-18T05:42:18.722Z,74.21
2019-02-18T05:43:18.635Z,74.40
2019-02-18T05:44:18.784Z,74.68
2019-02-18T05:45:18.954Z,74.49
2019-02-18T05:46:19.473Z,74.49
2019-02-18T05:47:18.572Z,74.49
2019-02-18T05:48:23.357Z,74.58
2019-02-18T05:49:18.535Z,74.58
2019-02-18T05:50:18.697Z,74.71
2019-02-18T05:51:18.526Z,75.00
2019-02-18T05:52:18.572Z,75.00
2019-02-18T05:53:19.493Z,74.90
2019-02-18T05:54:18.430Z,74.81
2019-02-18T05:55:18.644Z,74.81
2019-02-18T05:56:18.454Z,74.81
2019-02-18T05:57:18.402Z,74.90
2019-02-18T05:58:18.240Z,75.47
2019-02-18T05:59:18.332Z,75.57
2019-02-18T06:00:20.837Z,75.47
2019-02-18T06:01:18.460Z,75.57
2019-02-18T06:02:18.414Z,75.38
2019-02-18T06:03:18.267Z,75.57
2019-02-18T06:04:18.267Z,75.57
2019-02-18T06:05:18.156Z,75.38
2019-02-18T06:06:18.124Z,75.19
2019-02-18T06:07:18.155Z,75.28
2019-02-18T06:08:18.254Z,75.09
2019-02-18T06:09:29.286Z,75.38
2019-02-18T06:10:18.038Z,75.38
2019-02-18T06:11:20.917Z,75.09
2019-02-18T06:12:18.184Z,75.28
2019-02-18T06:13:18.903Z,75.47
2019-02-18T06:14:18.858Z,75.38
2019-02-18T06:15:19.910Z,75.47
2019-02-18T06:16:18.034Z,75.47
2019-02-18T06:17:18.991Z,75.57
2019-02-18T06:18:18.271Z,75.47
2019-02-18T06:19:17.957Z,76.04
2019-02-18T06:20:18.096Z,75.95
2019-02-18T06:21:19.820Z,76.04
2019-02-18T06:22:17.775Z,75.57
2019-02-18T06:23:17.895Z,75.38
2019-02-18T06:24:18.269Z,75.57
2019-02-18T06:25:18.385Z,75.28
2019-02-18T06:26:17.723Z,75.09
2019-02-18T06:27:17.787Z,75.19
2019-02-18T06:28:18.385Z,75.09
2019-02-18T06:29:17.709Z,75.28
2019-02-18T06:30:18.565Z,75.00
2019-02-18T06:31:17.767Z,75.00
2019-02-18T06:32:19.371Z,74.71
2019-02-18T06:33:17.709Z,75.00
2019-02-18T06:34:17.695Z,75.09
2019-02-18T06:35:17.554Z,74.56
2019-02-18T06:36:17.575Z,74.43
2019-02-18T06:37:19.317Z,74.56
2019-02-18T06:38:17.674Z,74.47
2019-02-18T06:39:17.465Z,74.85
2019-02-18T06:40:17.651Z,74.37
2019-02-18T06:41:19.426Z,74.75
2019-02-18T06:42:17.593Z,74.75
2019-02-18T06:43:19.603Z,74.66
2019-02-18T06:44:18.356Z,74.18
2019-02-18T06:45:17.449Z,74.37
2019-02-18T06:46:17.415Z,74.37
2019-02-18T06:47:17.365Z,74.66
2019-02-18T06:48:17.556Z,74.66
2019-02-18T06:49:17.846Z,74.37
2019-02-18T06:50:17.351Z,73.99
2019-02-18T06:51:17.399Z,74.18
2019-02-18T06:52:18.951Z,73.90
2019-02-18T06:53:17.893Z,73.99
2019-02-18T06:54:17.918Z,73.80
2019-02-18T06:55:38.346Z,73.99
2019-02-18T06:56:17.239Z,73.52
2019-02-18T06:57:17.864Z,73.52
2019-02-18T06:58:17.887Z,73.80
2019-02-18T06:59:38.353Z,73.24
2019-02-18T07:00:17.246Z,73.05
2019-02-18T07:01:17.108Z,73.05
2019-02-18T07:02:17.952Z,73.05
2019-02-18T07:03:18.610Z,72.99
2019-02-18T07:04:38.204Z,72.89
2019-02-18T07:05:18.939Z,72.71
2019-02-18T07:06:19.939Z,72.80
2019-02-18T07:07:17.106Z,72.71
2019-02-18T07:08:19.077Z,72.89
2019-02-18T07:09:17.902Z,72.33
2019-02-18T07:10:17.022Z,72.29
2019-02-18T07:11:16.931Z,72.42
2019-02-18T07:12:19.088Z,72.42
2019-02-18T07:13:16.923Z,72.52
2019-02-18T07:14:17.026Z,72.33
2019-02-18T07:15:17.024Z,72.14
2019-02-18T07:16:16.787Z,72.04
2019-02-18T07:17:16.894Z,72.61
2019-02-18T07:18:19.401Z,72.14
2019-02-18T07:19:38.517Z,72.04
2019-02-18T07:20:17.423Z,72.23
2019-02-18T07:21:19.333Z,72.33
2019-02-18T07:22:16.860Z,72.23
2019-02-18T07:23:16.813Z,72.04
2019-02-18T07:24:16.729Z,71.85
2019-02-18T07:25:18.364Z,72.23
2019-02-18T07:26:16.705Z,71.95
2019-02-18T07:27:16.707Z,71.85
2019-02-18T07:28:16.868Z,71.47
2019-02-18T07:29:17.417Z,71.95
2019-02-18T07:30:16.699Z,71.47
2019-02-18T07:31:18.573Z,71.57
2019-02-18T07:36:18.631Z,71.32
2019-02-18T07:37:07.993Z,71.32
2019-02-18T07:38:08.082Z,70.75
2019-02-18T07:39:10.487Z,71.03
2019-02-18T07:40:09.500Z,70.75
2019-02-18T07:42:08.692Z,70.56
2019-02-18T07:43:07.913Z,69.90
2019-02-18T07:44:07.868Z,70.09
2019-02-18T07:45:09.557Z,69.99
2019-02-18T07:46:07.781Z,70.28
2019-02-18T07:47:07.676Z,70.37
2019-02-18T07:48:09.577Z,69.90
2019-02-18T07:49:07.843Z,69.80
2019-02-18T07:50:09.479Z,69.99
2019-02-18T07:51:07.591Z,69.80
2019-02-18T07:52:07.677Z,69.61
2019-02-18T07:53:07.541Z,69.55
2019-02-18T07:54:10.105Z,69.13
2019-02-18T07:55:07.574Z,69.13
2019-02-18T07:56:07.582Z,69.36
2019-02-18T07:57:07.618Z,68.98
2019-02-18T07:58:07.477Z,68.98
2019-02-18T07:59:08.097Z,68.70
2019-02-18T08:00:12.178Z,68.51
2019-02-18T08:01:10.122Z,68.79
2019-02-18T08:02:07.543Z,68.98
2019-02-18T08:03:10.107Z,68.41
2019-02-18T08:04:07.555Z,68.51
2019-02-18T08:05:07.466Z,68.32
2019-02-18T08:06:28.386Z,67.85
2019-02-18T08:07:07.961Z,67.65
2019-02-18T08:08:09.017Z,67.27
2019-02-18T08:09:09.176Z,67.50
2019-02-18T08:10:12.331Z,67.12
2019-02-18T08:11:08.197Z,67.12
2019-02-18T08:12:07.297Z,66.46
2019-02-18T08:13:07.389Z,66.36
2019-02-18T08:14:18.208Z,66.46
2019-02-18T08:15:07.169Z,66.17
2019-02-18T08:16:07.339Z,65.79
2019-02-18T08:17:07.303Z,65.98
2019-02-18T08:18:10.268Z,65.06
2019-02-18T08:19:07.271Z,64.97
2019-02-18T08:20:07.185Z,65.06
2019-02-18T08:21:07.062Z,64.78
2019-02-18T08:22:07.299Z,63.92
2019-02-18T08:23:08.229Z,64.11
2019-02-18T08:24:07.174Z,64.02
2019-02-18T08:25:07.045Z,63.92
2019-02-18T08:26:07.063Z,64.11
2019-02-18T08:27:10.177Z,63.64
2019-02-18T08:28:07.010Z,63.73
2019-02-18T08:29:07.042Z,64.02
2019-02-18T08:30:06.972Z,63.64
2019-02-18T08:31:28.937Z,64.40
2019-02-18T08:32:11.615Z,64.21
2019-02-18T08:33:07.021Z,63.83
2019-02-18T08:34:07.006Z,63.64
2019-02-18T08:35:06.961Z,63.54
2019-02-18T08:36:17.670Z,63.54
2019-02-18T08:37:07.564Z,63.92
2019-02-18T08:38:13.777Z,63.64
2019-02-18T08:39:07.536Z,63.83
2019-02-18T08:40:06.949Z,63.45
2019-02-18T08:41:06.932Z,63.83
2019-02-18T08:42:06.960Z,63.67
2019-02-18T08:43:07.682Z,63.26
2019-02-18T08:44:08.669Z,63.57
2019-02-18T08:45:06.842Z,63.48
2019-02-18T08:46:17.804Z,63.29
2019-02-18T08:47:07.662Z,63.48
2019-02-18T08:48:17.855Z,63.20
2019-02-18T08:49:06.731Z,63.10
2019-02-18T08:50:11.693Z,62.91
2019-02-18T08:51:06.565Z,63.10
2019-02-18T08:52:08.710Z,62.81
2019-02-18T08:53:08.623Z,62.81
2019-02-18T08:54:06.541Z,62.91
2019-02-18T08:55:06.573Z,62.81
2019-02-18T08:56:06.661Z,62.72
2019-02-18T08:57:07.659Z,62.53
2019-02-18T08:58:09.481Z,62.05
2019-02-18T08:59:08.038Z,62.81
2019-02-18T09:00:06.569Z,62.53
2019-02-18T09:01:09.048Z,62.81
2019-02-18T09:02:07.954Z,62.62
2019-02-18T09:03:09.036Z,62.91
2019-02-18T09:04:10.963Z,63.10
2019-02-18T09:05:07.171Z,62.81
2019-02-18T09:06:20.941Z,62.91
2019-02-18T09:07:06.993Z,63.01
2019-02-18T09:08:07.150Z,63.10
2019-02-18T09:09:06.271Z,62.81
2019-02-18T09:10:33.664Z,62.62
2019-02-18T09:11:06.337Z,62.81
2019-02-18T09:13:08.230Z,62.91
2019-02-18T09:14:08.011Z,62.91
2019-02-18T09:15:08.056Z,62.56
2019-02-18T09:16:07.177Z,62.46
2019-02-18T09:17:07.970Z,61.90
2019-02-18T09:18:06.398Z,61.90
2019-02-18T09:19:06.337Z,61.80
2019-02-18T09:20:06.293Z,61.26
2019-02-18T09:21:06.116Z,60.50
2019-02-18T09:22:06.204Z,60.63
2019-02-18T09:23:06.195Z,59.58
2019-02-18T09:24:08.198Z,58.37
2019-02-18T09:25:16.534Z,56.85
2019-02-18T09:27:06.127Z,51.70
2019-02-18T09:28:07.946Z,50.26
2019-02-18T09:29:21.142Z,50.07
2019-02-18T09:30:07.550Z,49.38
2019-02-18T09:31:08.566Z,49.64
2019-02-18T09:32:06.189Z,48.88
2019-02-18T09:33:06.580Z,48.97
2019-02-18T09:34:10.584Z,48.80
2019-02-18T09:35:16.681Z,48.33
2019-02-18T09:36:16.698Z,47.37
2019-02-18T09:37:06.236Z,47.25
2019-02-18T09:38:06.064Z,47.82
2019-02-18T09:39:31.316Z,48.11
2019-02-18T09:40:05.971Z,49.04
2019-02-18T09:41:27.510Z,49.13
2019-02-18T09:42:08.750Z,49.87
2019-02-18T09:43:07.161Z,51.02
2019-02-18T09:44:06.660Z,51.40
2019-02-18T09:45:07.584Z,51.47
2019-02-18T09:46:06.001Z,52.14
2019-02-18T09:47:08.626Z,52.52
2019-02-18T09:48:06.048Z,53.06
2019-02-18T09:49:07.668Z,53.52
2019-02-18T09:50:05.793Z,54.56
2019-02-18T09:51:05.832Z,54.75
2019-02-18T09:52:05.691Z,55.70
2019-02-18T09:53:05.648Z,56.09
2019-02-18T09:54:05.817Z,55.99
2019-02-18T09:55:28.545Z,56.27
2019-02-18T09:56:05.731Z,56.53
2019-02-18T09:57:10.533Z,56.56
2019-02-18T09:58:06.578Z,56.75
2019-02-18T09:59:07.519Z,56.56
2019-02-18T10:00:05.687Z,56.65
2019-02-18T10:01:20.485Z,56.27
2019-02-18T10:02:05.768Z,56.09
2019-02-18T10:03:05.703Z,55.80
2019-02-18T10:04:05.692Z,55.80
2019-02-18T10:05:05.640Z,55.70
2019-02-18T10:06:06.427Z,55.35
2019-02-18T10:07:05.775Z,55.26
2019-02-18T10:08:10.098Z,54.97
2019-02-18T10:09:07.084Z,54.97
2019-02-18T10:10:05.430Z,54.49
2019-02-18T10:11:05.690Z,54.47
2019-02-18T10:12:17.642Z,54.88
2019-02-18T10:13:05.434Z,54.94
2019-02-18T10:14:05.335Z,55.32
2019-02-18T10:15:05.854Z,55.70
2019-02-18T10:16:10.159Z,56.18
2019-02-18T10:17:05.478Z,55.80
2019-02-18T10:18:05.393Z,55.35
2019-02-18T10:19:05.420Z,55.54
2019-02-18T10:20:06.065Z,54.59
2019-02-18T10:21:05.410Z,54.59
2019-02-18T10:22:05.528Z,54.14
2019-02-18T10:23:06.259Z,53.41
2019-02-18T10:24:10.105Z,51.93
2019-02-18T10:25:05.329Z,49.40
2019-02-18T10:26:05.379Z,47.44
2019-02-18T10:27:06.978Z,45.74
2019-02-18T10:28:07.076Z,44.57
2019-02-18T10:29:05.345Z,44.65
2019-02-18T10:30:07.996Z,45.58
2019-02-18T10:31:07.047Z,46.42
2019-02-18T10:32:05.451Z,46.89
2019-02-18T10:33:06.932Z,47.54
2019-02-18T10:36:06.331Z,48.37
2019-02-18T10:36:47.097Z,49.21
2019-02-18T10:37:54.607Z,50.45
2019-02-18T10:38:45.483Z,51.31
2019-02-18T10:39:45.343Z,51.76
2019-02-18T10:40:45.251Z,51.95
2019-02-18T10:41:49.945Z,52.04
2019-02-18T10:42:46.039Z,52.61
2019-02-18T10:43:46.905Z,52.61
2019-02-18T10:44:45.277Z,52.90
2019-02-18T10:45:45.213Z,53.09
2019-02-18T10:46:46.104Z,52.76
2019-02-18T10:49:20.001Z,50.98
2019-02-18T10:50:13.745Z,48.57
2019-02-18T10:51:07.189Z,46.08
2019-02-18T10:52:07.878Z,45.79
2019-02-18T10:53:07.121Z,45.58
2019-02-18T10:54:07.145Z,46.27
2019-02-18T10:55:07.284Z,45.55
2019-02-18T10:56:07.157Z,43.30
2019-02-18T10:57:07.704Z,41.88
2019-02-18T10:58:11.809Z,40.92
2019-02-18T10:59:06.991Z,40.77
2019-02-18T11:00:09.800Z,39.64
2019-02-18T11:01:07.760Z,37.66
2019-02-18T11:02:07.099Z,36.24
2019-02-18T11:04:32.581Z,34.66
2019-02-18T11:05:30.514Z,33.53
2019-02-18T11:07:25.852Z,33.08
2019-02-18T11:08:24.865Z,34.06
2019-02-18T11:09:25.337Z,33.40
2019-02-18T11:10:25.560Z,33.03
2019-02-18T11:11:24.849Z,32.25
2019-02-18T11:12:24.857Z,32.26
2019-02-18T11:13:24.842Z,31.90
2019-02-18T11:14:24.749Z,31.32
2019-02-18T11:15:24.814Z,31.06
2019-02-18T11:16:25.437Z,30.11
2019-02-18T11:18:24.643Z,29.10
2019-02-18T11:19:27.496Z,27.20
2019-02-18T11:20:25.423Z,26.18
2019-02-18T11:21:31.533Z,24.67
2019-02-18T11:22:26.605Z,24.12
2019-02-18T11:23:46.581Z,23.17
2019-02-18T11:29:06.306Z,19.60
2019-02-18T11:30:26.935Z,19.41
2019-02-18T11:31:22.482Z,19.70
2019-02-18T11:33:31.057Z,19.99
2019-02-18T11:34:17.144Z,19.49
2019-02-18T11:35:19.568Z,19.51
2019-02-18T11:38:11.622Z,19.95
2019-02-18T11:38:49.515Z,20.25
2019-02-18T11:41:05.496Z,20.39
2019-02-18T11:41:57.192Z,21.89
2019-02-18T11:42:56.941Z,22.95
2019-02-18T11:43:59.677Z,23.85
2019-02-18T11:44:59.618Z,22.51
2019-02-18T11:45:58.522Z,21.67
2019-02-18T11:47:18.108Z,21.09
2019-02-18T11:47:56.941Z,21.37
2019-02-18T11:49:01.826Z,21.65
2019-02-18T11:49:58.610Z,21.93
2019-02-18T11:51:01.446Z,23.01
2019-02-18T11:51:59.892Z,24.55
2019-02-18T11:52:56.746Z,25.23
2019-02-18T11:54:18.474Z,25.25
2019-02-18T11:55:03.429Z,24.32
2019-02-18T11:56:11.663Z,23.13
2019-02-18T11:56:58.623Z,24.61
2019-02-18T11:58:01.688Z,27.06
2019-02-18T11:58:58.533Z,29.49
2019-02-18T12:00:17.943Z,32.42
2019-02-18T12:00:56.841Z,34.87
2019-02-18T12:01:58.772Z,37.13
2019-02-18T12:03:12.703Z,39.00
2019-02-18T12:03:57.393Z,40.80
2019-02-18T12:05:57.490Z,44.01
2019-02-18T12:06:56.913Z,45.61
2019-02-18T12:08:03.424Z,47.68
2019-02-18T12:08:57.990Z,48.90
2019-02-18T12:11:03.538Z,51.89
2019-02-18T12:12:03.652Z,53.32
2019-02-18T12:12:56.909Z,53.96
2019-02-18T12:14:01.659Z,54.44
2019-02-18T12:15:20.631Z,55.29
2019-02-18T12:15:58.575Z,56.05
2019-02-18T12:17:01.489Z,57.07
2019-02-18T12:17:58.508Z,57.36
2019-02-18T12:19:11.592Z,58.40
2019-02-18T12:20:01.639Z,58.79
2019-02-18T12:20:58.656Z,59.14
2019-02-18T12:21:58.606Z,59.71
2019-02-18T12:25:17.148Z,61.10
2019-02-18T12:26:16.105Z,61.96
2019-02-18T12:30:16.164Z,64.40
2019-02-18T12:31:15.234Z,63.83
2019-02-18T12:33:14.633Z,64.11
2019-02-18T12:34:07.794Z,64.59
2019-02-18T12:36:16.182Z,65.54
2019-02-18T12:37:00.635Z,65.82
2019-02-18T12:38:53.546Z,65.82
2019-02-18T12:39:53.673Z,66.39
2019-02-18T12:43:19.840Z,66.49
2019-02-18T12:44:15.076Z,66.39
2019-02-18T12:47:36.581Z,67.06
2019-02-18T12:48:27.585Z,67.21
2019-02-18T12:50:35.157Z,67.69
2019-02-18T12:51:24.654Z,68.07
2019-02-18T12:52:19.713Z,68.83
2019-02-18T12:53:46.303Z,69.02
2019-02-18T12:54:22.640Z,69.11
2019-02-18T12:55:34.872Z,69.78
2019-02-18T12:56:19.592Z,70.15
2019-02-18T12:57:19.646Z,69.87
2019-02-18T12:58:19.725Z,69.87
2019-02-18T12:59:20.219Z,70.06
2019-02-18T13:00:19.774Z,70.54
2019-02-18T13:01:24.385Z,70.35
2019-02-18T13:02:20.289Z,70.63
2019-02-18T13:03:19.552Z,71.48
2019-02-18T13:04:24.236Z,71.07
2019-02-18T13:05:19.821Z,71.64
2019-02-18T13:06:20.156Z,71.73
2019-02-18T13:07:19.348Z,72.21
2019-02-18T13:08:22.004Z,72.59
2019-02-18T13:09:20.293Z,72.21
2019-02-18T13:10:21.207Z,72.49
2019-02-18T13:11:20.087Z,72.97
2019-02-18T13:12:19.471Z,73.07
2019-02-18T13:13:20.039Z,73.82
2019-02-18T13:14:20.070Z,73.35
2019-02-18T13:15:19.245Z,73.25
2019-02-18T13:16:34.130Z,73.16
2019-02-18T13:17:21.185Z,72.97
2019-02-18T13:18:19.275Z,73.25
2019-02-18T13:19:19.570Z,73.72
2019-02-18T13:20:22.321Z,73.72
2019-02-18T13:21:26.083Z,73.63
2019-02-18T13:22:19.161Z,73.92
2019-02-18T13:23:19.263Z,73.82
2019-02-18T13:24:19.174Z,74.20
2019-02-18T13:25:19.204Z,74.30
2019-02-18T13:26:19.146Z,73.92
2019-02-18T13:27:19.593Z,74.58
2019-02-18T13:31:26.962Z,75.15
2019-02-18T13:32:19.032Z,75.15
2019-02-18T13:33:23.801Z,74.77
2019-02-18T13:34:18.953Z,75.43
2019-02-18T13:35:18.844Z,75.53
2019-02-18T13:36:19.719Z,75.24
2019-02-18T13:37:18.924Z,74.96
2019-02-18T13:38:18.950Z,75.15
2019-02-18T13:39:18.800Z,75.15
2019-02-18T13:40:23.861Z,75.24
2019-02-18T13:41:19.806Z,75.62